Time;durP1;ratioP1;P1;durP2;ratioP2;P2;SDS_P1;SDS_P2;PMS_P1;PMS_P2;Temp;Humidity;BMP_temperature;BMP_pressure;BME280_temperature;BME280_humidity;BME280_pressure;Samples;Min_cycle;Max_cycle;Signal;HPM_P1;HPM_P2
2021/01/03 00:00:39;;;;;;;62.78;22.23;;;;;;;4.74;100.00;101171.41;5020508;28;20109;-73
2021/01/03 00:03:05;;;;;;;63.65;22.85;;;;;;;4.66;100.00;101175.59;5041573;28;20040;-73
2021/01/03 00:05:33;;;;;;;66.10;24.90;;;;;;;4.61;100.00;101181.03;5035058;28;20481;-73
2021/01/03 00:07:59;;;;;;;62.33;23.20;;;;;;;4.69;100.00;101179.50;5011520;28;20040;-73
2021/01/03 00:10:24;;;;;;;71.18;24.23;;;;;;;4.74;100.00;101184.75;5023697;28;20037;-73
2021/01/03 00:12:50;;;;;;;72.18;25.20;;;;;;;4.80;100.00;101180.88;5023972;28;20025;-73
2021/01/03 00:15:19;;;;;;;69.10;24.15;;;;;;;4.83;100.00;101189.06;5025350;28;20485;-73
2021/01/03 00:17:44;;;;;;;73.05;25.88;;;;;;;4.75;100.00;101188.97;5042943;28;20017;-72
2021/01/03 00:20:17;;;;;;;74.72;26.10;;;;;;;4.84;100.00;101189.84;5042930;28;20048;-73
2021/01/03 00:22:43;;;;;;;67.03;24.40;;;;;;;4.76;100.00;101183.34;5027688;28;20063;-74
2021/01/03 00:25:10;;;;;;;77.10;25.58;;;;;;;4.86;100.00;101182.34;5041905;28;20042;-73
2021/01/03 00:27:36;;;;;;;78.60;25.95;;;;;;;4.83;100.00;101189.06;5041830;28;20040;-73
2021/01/03 00:30:05;;;;;;;73.57;25.65;;;;;;;4.75;100.00;101189.78;5022923;28;20503;-73
2021/01/03 00:32:31;;;;;;;75.60;25.15;;;;;;;4.69;100.00;101180.31;5023630;28;20029;-74
2021/01/03 00:34:56;;;;;;;71.07;24.15;;;;;;;4.77;100.00;101182.25;5028707;28;20084;-73
2021/01/03 00:37:22;;;;;;;75.63;26.67;;;;;;;4.76;100.00;101187.91;5041093;28;20079;-73
2021/01/03 00:39:49;;;;;;;73.53;24.70;;;;;;;4.84;100.00;101177.28;5023383;28;20037;-73
2021/01/03 00:42:15;;;;;;;71.18;25.60;;;;;;;4.77;100.00;101192.13;5005743;28;20442;-73
2021/01/03 00:44:40;;;;;;;67.82;24.70;;;;;;;4.65;100.00;101186.53;5040212;28;20032;-73
2021/01/03 00:47:06;;;;;;;78.57;26.55;;;;;;;4.73;100.00;101180.47;5022728;28;20034;-74
2021/01/03 00:49:31;;;;;;;73.22;25.70;;;;;;;4.68;100.00;101181.41;5024538;28;20120;-73
2021/01/03 00:51:57;;;;;;;72.70;25.77;;;;;;;4.73;100.00;101189.28;5025200;28;20036;-73
2021/01/03 00:54:22;;;;;;;66.07;25.05;;;;;;;4.73;100.00;101186.63;5029094;28;20449;-73
2021/01/03 00:56:48;;;;;;;69.15;25.45;;;;;;;4.73;100.00;101183.94;5025832;28;20083;-73
2021/01/03 00:59:13;;;;;;;75.35;24.70;;;;;;;4.83;100.00;101186.38;5029689;28;20104;-73
2021/01/03 01:01:38;;;;;;;68.50;23.92;;;;;;;4.86;100.00;101196.44;5027030;28;20027;-73
2021/01/03 01:04:04;;;;;;;72.78;25.40;;;;;;;4.73;100.00;101196.47;5046822;28;20045;-73
2021/01/03 01:06:29;;;;;;;78.97;24.42;;;;;;;4.68;100.00;101200.06;5024025;28;20045;-74
2021/01/03 01:08:55;;;;;;;67.72;24.33;;;;;;;4.66;100.00;101207.59;5046902;28;20033;-73
2021/01/03 01:11:23;;;;;;;70.72;24.65;;;;;;;4.61;100.00;101199.69;5024703;28;20386;-73
2021/01/03 01:13:49;;;;;;;75.32;24.50;;;;;;;4.60;100.00;101198.13;5024830;28;20021;-73
2021/01/03 01:16:14;;;;;;;76.20;25.02;;;;;;;4.63;100.00;101192.19;5024385;28;20032;-74
2021/01/03 01:18:40;;;;;;;69.18;24.63;;;;;;;4.64;100.00;101196.44;5029805;28;20064;-74
2021/01/03 01:21:06;;;;;;;72.78;24.58;;;;;;;4.58;100.00;101202.97;5025363;28;20061;-73
2021/01/03 01:23:32;;;;;;;72.80;24.70;;;;;;;4.59;100.00;101201.88;5027274;28;20028;-73
2021/01/03 01:25:58;;;;;;;76.90;25.92;;;;;;;4.58;100.00;101193.09;5049026;28;20097;-73
2021/01/03 01:28:24;;;;;;;71.22;24.80;;;;;;;4.67;100.00;101193.16;5042817;28;20060;-74
2021/01/03 01:30:49;;;;;;;68.22;25.20;;;;;;;4.62;100.00;101195.94;5028450;28;20057;-73
2021/01/03 01:33:15;;;;;;;68.68;24.95;;;;;;;4.54;100.00;101202.00;5041704;28;20068;-73
2021/01/03 01:35:41;;;;;;;68.47;23.67;;;;;;;4.50;100.00;101204.47;5028460;28;20029;-74
2021/01/03 01:38:06;;;;;;;66.70;23.88;;;;;;;4.47;100.00;101206.97;5042316;28;20112;-73
2021/01/03 01:40:35;;;;;;;72.95;24.67;;;;;;;4.45;100.00;101199.22;5025114;28;20045;-73
2021/01/03 01:43:01;;;;;;;67.95;23.00;;;;;;;4.40;100.00;101209.22;5047132;28;20517;-73
2021/01/03 01:45:33;;;;;;;66.07;22.83;;;;;;;4.44;100.00;101213.66;5040847;28;20033;-73
2021/01/03 01:48:09;;;;;;;65.05;23.23;;;;;;;4.54;100.00;101200.13;5039858;28;20029;-73
2021/01/03 01:50:47;;;;;;;73.03;24.15;;;;;;;4.53;100.00;101208.41;5030163;28;20119;-73
2021/01/03 01:53:26;;;;;;;63.92;22.77;;;;;;;4.52;100.00;101201.50;5044569;28;20090;-74
2021/01/03 01:56:02;;;;;;;74.68;23.65;;;;;;;4.47;100.00;101204.28;5040343;28;20107;-74
2021/01/03 01:58:35;;;;;;;68.53;23.90;;;;;;;4.47;100.00;101210.38;5011136;28;20036;-74
2021/01/03 02:01:04;;;;;;;69.00;23.88;;;;;;;4.51;100.00;101200.69;5048343;28;20021;-74
2021/01/03 02:03:36;;;;;;;72.72;24.25;;;;;;;4.56;100.00;101191.81;5043588;28;20029;-74
2021/01/03 02:06:21;;;;;;;70.88;23.08;;;;;;;4.54;100.00;101197.44;5041854;28;20477;-74
2021/01/03 02:08:56;;;;;;;65.85;22.48;;;;;;;4.54;100.00;101189.47;5027339;28;20409;-74
2021/01/03 02:11:24;;;;;;;64.78;22.95;;;;;;;4.47;100.00;101199.72;5029988;28;20391;-74
2021/01/03 02:13:54;;;;;;;67.25;23.13;;;;;;;4.51;100.00;101202.56;5027108;28;20500;-74
2021/01/03 02:16:24;;;;;;;64.90;21.63;;;;;;;4.52;100.00;101199.63;5038957;28;20034;-74
2021/01/03 02:18:52;;;;;;;73.87;24.20;;;;;;;4.52;100.00;101209.50;5042579;28;20504;-74
2021/01/03 02:21:25;;;;;;;68.47;23.40;;;;;;;4.51;100.00;101205.25;5041848;28;20473;-74
2021/01/03 02:24:13;;;;;;;74.50;24.80;;;;;;;4.48;100.00;101216.53;5022638;28;20167;-74
2021/01/03 02:26:45;;;;;;;71.53;23.65;;;;;;;4.40;100.00;101215.34;5010885;28;20492;-74
2021/01/03 02:29:13;;;;;;;64.35;23.88;;;;;;;4.47;100.00;101209.63;5028801;28;20457;-74
2021/01/03 02:31:45;;;;;;;68.28;23.08;;;;;;;4.46;100.00;101213.38;5024767;28;20028;-74
2021/01/03 02:34:17;;;;;;;65.82;22.95;;;;;;;4.32;100.00;101215.25;5025370;28;20159;-74
2021/01/03 02:36:50;;;;;;;67.03;23.92;;;;;;;4.31;100.00;101205.69;5038059;28;20025;-74
2021/01/03 02:39:52;;;;;;;68.20;23.30;;;;;;;4.28;100.00;101207.06;5013545;28;20052;-74
2021/01/03 02:42:30;;;;;;;79.07;23.48;;;;;;;4.37;100.00;101212.50;5041988;28;20108;-74
2021/01/03 02:44:56;;;;;;;67.88;24.05;;;;;;;4.44;100.00;101204.88;5020377;28;20029;-74
2021/01/03 02:47:24;;;;;;;71.50;23.75;;;;;;;4.38;100.00;101208.72;5022075;28;20083;-74
2021/01/03 02:49:50;;;;;;;67.60;24.13;;;;;;;4.35;100.00;101206.69;5007820;28;20049;-73
2021/01/03 02:52:23;;;;;;;67.97;24.05;;;;;;;4.36;100.00;101210.91;5047761;28;20069;-74
2021/01/03 02:54:51;;;;;;;70.57;24.23;;;;;;;4.32;100.00;101208.06;5040102;28;20494;-74
2021/01/03 02:57:16;;;;;;;74.85;24.92;;;;;;;4.35;100.00;101199.47;5024712;28;20433;-74
2021/01/03 02:59:41;;;;;;;71.13;23.08;;;;;;;4.44;100.00;101202.22;5039886;28;20087;-74
2021/01/03 03:02:07;;;;;;;65.03;23.20;;;;;;;4.45;100.00;101201.13;5042090;28;20021;-74
2021/01/03 03:04:33;;;;;;;75.43;23.23;;;;;;;4.45;100.00;101214.47;5044936;28;20036;-74
2021/01/03 03:06:58;;;;;;;67.53;23.35;;;;;;;4.48;100.00;101203.97;5042741;28;20477;-74
2021/01/03 03:09:24;;;;;;;76.07;23.63;;;;;;;4.42;100.00;101199.06;5029293;28;20033;-74
2021/01/03 03:11:49;;;;;;;73.93;23.60;;;;;;;4.41;100.00;101206.25;5025688;28;20112;-74
2021/01/03 03:14:15;;;;;;;67.60;22.17;;;;;;;4.48;100.00;101206.66;5036741;28;20478;-74
2021/01/03 03:16:40;;;;;;;74.88;24.05;;;;;;;4.55;100.00;101203.56;5021409;28;20033;-74
2021/01/03 03:19:06;;;;;;;75.57;24.10;;;;;;;4.49;100.00;101202.13;5006098;28;20032;-74
2021/01/03 03:21:32;;;;;;;74.38;23.60;;;;;;;4.61;100.00;101197.03;5023570;28;20026;-74
2021/01/03 03:23:57;;;;;;;72.18;23.75;;;;;;;4.47;100.00;101205.06;5044002;28;20056;-74
2021/01/03 03:26:23;;;;;;;65.50;22.38;;;;;;;4.47;100.00;101212.28;5025247;28;20033;-74
2021/01/03 03:28:48;;;;;;;64.57;22.08;;;;;;;4.58;100.00;101206.44;5045436;28;20076;-74
2021/01/03 03:31:13;;;;;;;73.45;23.05;;;;;;;4.67;100.00;101206.50;5038524;28;20587;-74
2021/01/03 03:33:39;;;;;;;73.13;22.77;;;;;;;4.73;100.00;101196.47;5023463;28;20032;-74
2021/01/03 03:36:05;;;;;;;67.13;21.77;;;;;;;4.69;100.00;101201.63;5042689;28;20041;-74
2021/01/03 03:38:30;;;;;;;76.90;23.77;;;;;;;4.74;100.00;101200.75;5039313;28;20025;-74
2021/01/03 03:40:56;;;;;;;70.07;22.27;;;;;;;4.67;100.00;101195.03;5041909;28;20025;-73
2021/01/03 03:43:21;;;;;;;79.95;24.52;;;;;;;4.70;100.00;101189.09;5045029;28;20025;-72
2021/01/03 03:45:47;;;;;;;74.00;23.80;;;;;;;4.63;100.00;101200.19;5040651;28;20071;-73
2021/01/03 03:48:12;;;;;;;76.35;23.00;;;;;;;4.56;100.00;101197.94;5039203;28;20123;-73
2021/01/03 03:50:38;;;;;;;75.03;24.10;;;;;;;4.72;100.00;101189.59;5005888;28;20033;-73
2021/01/03 03:53:03;;;;;;;75.38;22.92;;;;;;;4.85;100.00;101194.88;5037176;28;20025;-73
2021/01/03 03:55:29;;;;;;;63.25;21.60;;;;;;;4.70;100.00;101191.78;5024120;28;20033;-73
2021/01/03 03:57:54;;;;;;;68.10;24.42;;;;;;;4.72;100.00;101190.38;5021738;28;20128;-73
2021/01/03 04:00:23;;;;;;;60.67;20.42;;;;;;;4.63;100.00;101194.06;5036672;28;20022;-73
2021/01/03 04:02:49;;;;;;;56.20;20.40;;;;;;;4.48;100.00;101190.66;5011525;28;20782;-73
2021/01/03 04:05:21;;;;;;;57.53;18.85;;;;;;;4.62;100.00;101187.94;5022393;28;20061;-73
2021/01/03 04:07:47;;;;;;;50.53;18.63;;;;;;;4.59;100.00;101193.88;5028062;28;20560;-73
2021/01/03 04:10:13;;;;;;;53.33;18.38;;;;;;;4.58;100.00;101184.31;5037500;28;20091;-73
2021/01/03 04:12:39;;;;;;;47.75;18.02;;;;;;;4.51;100.00;101190.03;5035270;28;20125;-73
2021/01/03 04:15:10;;;;;;;47.53;17.48;;;;;;;4.62;100.00;101179.94;5042724;28;20021;-74
2021/01/03 04:17:36;;;;;;;56.45;17.58;;;;;;;4.73;100.00;101183.94;5039635;28;20393;-73
2021/01/03 04:20:06;;;;;;;50.88;16.45;;;;;;;4.56;100.00;101189.16;5039400;28;20033;-73
2021/01/03 04:22:32;;;;;;;52.40;17.55;;;;;;;4.59;100.00;101176.00;5038725;28;20124;-73
2021/01/03 04:24:58;;;;;;;49.83;17.30;;;;;;;4.64;100.00;101177.78;5022538;28;20116;-73
2021/01/03 04:27:24;;;;;;;49.38;17.50;;;;;;;4.67;100.00;101182.47;5030494;28;20123;-73
2021/01/03 04:29:50;;;;;;;52.53;16.73;;;;;;;4.68;100.00;101184.06;5011371;28;20509;-73
2021/01/03 04:32:16;;;;;;;55.80;18.27;;;;;;;4.70;100.00;101181.91;5024880;28;20037;-73
2021/01/03 04:34:42;;;;;;;47.42;17.20;;;;;;;4.59;100.00;101185.88;5027846;28;20071;-73
2021/01/03 04:37:09;;;;;;;53.65;18.08;;;;;;;4.65;100.00;101189.19;5020234;28;20390;-73
2021/01/03 04:39:36;;;;;;;47.40;17.20;;;;;;;4.59;100.00;101193.88;5040979;28;20081;-73
2021/01/03 04:42:03;;;;;;;52.25;18.10;;;;;;;4.63;100.00;101189.50;5020170;28;20123;-72
2021/01/03 04:44:36;;;;;;;46.83;16.42;;;;;;;4.66;100.00;101193.47;5043924;28;20020;-73
2021/01/03 04:47:10;;;;;;;47.20;16.98;;;;;;;4.57;100.00;101193.38;5016472;28;21387;-73
2021/01/03 04:49:47;;;;;;;43.00;16.08;;;;;;;4.70;100.00;101195.22;5042373;28;20047;-72
2021/01/03 04:52:34;;;;;;;38.03;14.45;;;;;;;4.52;100.00;101198.84;5037795;28;20095;-73
2021/01/03 04:55:19;;;;;;;34.65;13.23;;;;;;;4.62;100.00;101201.28;5041515;28;20485;-73
2021/01/03 04:57:50;;;;;;;37.65;14.57;;;;;;;4.61;100.00;101191.69;5034192;28;20033;-73
2021/01/03 05:00:18;;;;;;;31.15;13.52;;;;;;;4.52;100.00;101202.28;5004566;28;20044;-73
2021/01/03 05:03:12;;;;;;;28.90;13.40;;;;;;;4.51;100.00;101203.38;5037835;28;20033;-73
2021/01/03 05:05:49;;;;;;;33.78;13.15;;;;;;;4.53;100.00;101197.72;5010389;28;20046;-73
2021/01/03 05:08:39;;;;;;;35.33;13.63;;;;;;;4.53;100.00;101208.41;5020268;28;20037;-73
2021/01/03 05:11:11;;;;;;;40.60;14.30;;;;;;;4.60;100.00;101214.13;5033658;28;20041;-73
2021/01/03 05:14:01;;;;;;;37.80;13.68;;;;;;;4.40;100.00;101211.88;5023281;28;20033;-73
2021/01/03 05:16:27;;;;;;;36.45;13.98;;;;;;;4.33;100.00;101206.19;5037603;28;20048;-73
2021/01/03 05:19:13;;;;;;;35.40;14.43;;;;;;;4.40;100.00;101217.22;5038544;28;20507;-73
2021/01/03 05:21:58;;;;;;;36.22;14.40;;;;;;;4.30;100.00;101215.56;5006227;28;20510;-72
2021/01/03 05:24:26;;;;;;;37.45;13.68;;;;;;;4.36;100.00;101213.56;5007041;28;20054;-73
2021/01/03 05:26:52;;;;;;;37.88;14.35;;;;;;;4.55;100.00;101223.00;5007316;28;20034;-73
2021/01/03 05:29:28;;;;;;;33.45;13.45;;;;;;;4.50;100.00;101220.47;5005989;28;20142;-73
2021/01/03 05:32:03;;;;;;;34.97;14.77;;;;;;;4.48;100.00;101227.97;4988770;28;20049;-73
2021/01/03 05:34:42;;;;;;;39.40;14.07;;;;;;;4.63;100.00;101221.50;5003885;28;20518;-74
2021/01/03 05:37:15;;;;;;;37.88;14.60;;;;;;;4.74;100.00;101219.41;4990532;28;20034;-73
2021/01/03 05:39:42;;;;;;;36.80;15.20;;;;;;;4.68;100.00;101226.75;4990837;28;20048;-73
2021/01/03 05:42:16;;;;;;;36.95;14.75;;;;;;;4.65;100.00;101231.88;4991175;28;20423;-73
2021/01/03 05:45:01;;;;;;;36.70;14.90;;;;;;;4.56;100.00;101229.16;4992363;28;20410;-73
2021/01/03 05:47:58;;;;;;;36.05;14.52;;;;;;;4.67;100.00;101235.81;4978235;28;20125;-73
2021/01/03 05:50:36;;;;;;;33.65;14.02;;;;;;;4.55;100.00;101235.56;5009189;28;20498;-73
2021/01/03 05:53:07;;;;;;;33.08;13.85;;;;;;;4.56;100.00;101239.81;5009819;28;20125;-73
2021/01/03 05:55:35;;;;;;;36.03;14.02;;;;;;;4.67;100.00;101243.81;4993809;28;20042;-73
2021/01/03 05:58:16;;;;;;;37.50;15.10;;;;;;;4.59;100.00;101241.88;5020500;28;20116;-73
2021/01/03 06:00:42;;;;;;;37.38;15.20;;;;;;;4.79;100.00;101244.09;5025583;28;20752;-73
2021/01/03 06:03:25;;;;;;;33.65;14.45;;;;;;;4.57;100.00;101241.38;5047420;28;20029;-73
2021/01/03 06:05:54;;;;;;;34.50;13.65;;;;;;;4.55;100.00;101246.22;5043407;28;20044;-73
2021/01/03 06:08:24;;;;;;;29.90;13.38;;;;;;;4.54;100.00;101241.97;5021755;28;20037;-73
2021/01/03 06:10:51;;;;;;;30.50;13.05;;;;;;;4.59;100.00;101244.53;5045386;28;20036;-73
2021/01/03 06:13:19;;;;;;;30.02;13.88;;;;;;;4.66;100.00;101247.59;5023854;28;20061;-73
2021/01/03 06:15:51;;;;;;;33.03;13.27;;;;;;;4.67;100.00;101249.16;5009039;28;20067;-73
2021/01/03 06:18:34;;;;;;;29.92;13.02;;;;;;;4.57;100.00;101246.72;5024783;28;20030;-73
2021/01/03 06:20:59;;;;;;;28.20;12.85;;;;;;;4.58;100.00;101237.63;5042704;28;20028;-73
2021/01/03 06:23:35;;;;;;;27.45;12.77;;;;;;;4.67;100.00;101248.38;5042187;28;20029;-73
2021/01/03 06:26:16;;;;;;;24.73;11.82;;;;;;;4.63;100.00;101261.50;5029458;28;20032;-73
2021/01/03 06:28:47;;;;;;;28.13;12.85;;;;;;;4.69;100.00;101249.66;5025263;28;20056;-73
2021/01/03 06:31:43;;;;;;;30.38;12.52;;;;;;;4.76;100.00;101267.91;5030766;28;20056;-73
2021/01/03 06:34:14;;;;;;;27.83;12.00;;;;;;;4.73;100.00;101263.16;5044603;28;20402;-73
2021/01/03 06:36:42;;;;;;;28.50;13.02;;;;;;;4.54;100.00;101265.97;5037337;28;20090;-73
2021/01/03 06:39:19;;;;;;;27.48;12.73;;;;;;;4.60;100.00;101267.47;5025307;28;20025;-73
2021/01/03 06:41:51;;;;;;;25.58;11.23;;;;;;;4.77;100.00;101259.63;5023713;28;20029;-72
2021/01/03 06:44:35;;;;;;;26.67;11.68;;;;;;;4.82;100.00;101256.06;5024480;28;20072;-73
2021/01/03 06:47:41;;;;;;;30.13;11.70;;;;;;;4.59;100.00;101257.88;5027058;28;20056;-73
2021/01/03 06:50:31;;;;;;;28.33;11.70;;;;;;;4.68;100.00;101269.44;5030746;28;20040;-73
2021/01/03 06:53:12;;;;;;;25.52;11.40;;;;;;;4.74;100.00;101264.75;5022721;28;20045;-72
2021/01/03 06:56:06;;;;;;;25.45;11.93;;;;;;;4.67;100.00;101269.69;5036877;28;20075;-73
2021/01/03 06:58:50;;;;;;;25.73;11.93;;;;;;;4.55;100.00;101276.34;5042249;28;20436;-73
2021/01/03 07:01:35;;;;;;;25.55;11.50;;;;;;;4.53;100.00;101257.19;5007552;28;20033;-72
2021/01/03 07:04:10;;;;;;;25.48;11.50;;;;;;;4.56;100.00;101261.94;5038639;28;20090;-72
2021/01/03 07:06:37;;;;;;;29.33;12.57;;;;;;;4.62;100.00;101267.16;5025859;28;20490;-72
2021/01/03 07:09:09;;;;;;;23.00;11.68;;;;;;;4.58;100.00;101267.75;5039752;28;20025;-73
2021/01/03 07:11:59;;;;;;;24.05;11.50;;;;;;;4.44;100.00;101264.31;5040800;28;20481;-72
2021/01/03 07:14:24;;;;;;;24.27;11.55;;;;;;;4.53;100.00;101265.19;5030044;28;20041;-73
2021/01/03 07:16:54;;;;;;;30.98;12.32;;;;;;;4.45;100.00;101270.44;5024655;28;20489;-73
2021/01/03 07:19:29;;;;;;;23.87;10.93;;;;;;;4.53;100.00;101275.84;5025390;28;20120;-73
2021/01/03 07:22:12;;;;;;;26.80;12.10;;;;;;;4.49;100.00;101271.44;5042714;28;20280;-73
2021/01/03 07:24:42;;;;;;;26.08;11.57;;;;;;;4.61;100.00;101269.03;5017272;28;20088;-72
2021/01/03 07:27:36;;;;;;;25.43;11.10;;;;;;;4.56;100.00;101274.47;5007555;28;20047;-73
2021/01/03 07:30:04;;;;;;;25.55;11.32;;;;;;;4.63;100.00;101276.75;5039442;28;20029;-73
2021/01/03 07:32:32;;;;;;;22.50;11.52;;;;;;;4.65;100.00;101278.00;5043028;28;20075;-73
2021/01/03 07:35:01;;;;;;;21.10;10.55;;;;;;;4.59;100.00;101279.19;5039989;28;20075;-73
2021/01/03 07:37:33;;;;;;;23.23;11.38;;;;;;;4.52;100.00;101276.16;5020603;28;20136;-73
2021/01/03 07:40:14;;;;;;;24.17;11.40;;;;;;;4.48;100.00;101270.63;5026032;28;20025;-73
2021/01/03 07:42:42;;;;;;;25.30;10.32;;;;;;;4.62;100.00;101275.94;5016481;28;20083;-73
2021/01/03 07:45:14;;;;;;;20.90;10.10;;;;;;;4.61;100.00;101279.69;5042470;28;20102;-73
2021/01/03 07:47:46;;;;;;;20.23;9.77;;;;;;;4.61;100.00;101279.69;5019949;28;20121;-73
2021/01/03 07:50:26;;;;;;;23.35;10.50;;;;;;;4.68;100.00;101273.97;5021982;28;20680;-73
2021/01/03 07:52:57;;;;;;;27.38;11.65;;;;;;;4.50;100.00;101279.13;5040066;28;20044;-73
2021/01/03 07:55:22;;;;;;;25.35;11.07;;;;;;;4.53;100.00;101273.19;5026732;28;20032;-73
2021/01/03 07:57:57;;;;;;;23.20;11.38;;;;;;;4.63;100.00;101277.50;5040672;28;20040;-73
2021/01/03 08:00:24;;;;;;;22.65;10.93;;;;;;;4.69;100.00;101280.84;5022779;28;20055;-73
2021/01/03 08:02:54;;;;;;;25.23;10.95;;;;;;;4.58;100.00;101270.44;5037965;28;20032;-72
2021/01/03 08:05:23;;;;;;;21.88;10.48;;;;;;;4.56;100.00;101279.81;5040768;28;20049;-73
2021/01/03 08:07:49;;;;;;;24.17;10.40;;;;;;;4.57;100.00;101274.16;5021518;28;20047;-74
2021/01/03 08:10:15;;;;;;;23.45;10.40;;;;;;;4.61;100.00;101285.03;5021940;28;20041;-73
2021/01/03 08:12:46;;;;;;;23.45;11.23;;;;;;;4.75;100.00;101272.47;5040501;28;20039;-72
2021/01/03 08:15:24;;;;;;;21.23;10.75;;;;;;;4.69;100.00;101276.31;5021840;28;20037;-73
2021/01/03 08:17:49;;;;;;;23.55;11.25;;;;;;;4.64;100.00;101276.44;5038614;28;20033;-72
2021/01/03 08:20:23;;;;;;;22.65;11.65;;;;;;;4.56;100.00;101280.59;5039834;28;20033;-72
2021/01/03 08:22:48;;;;;;;21.65;10.88;;;;;;;4.57;100.00;101273.38;5040759;28;20025;-72
2021/01/03 08:25:20;;;;;;;22.08;10.60;;;;;;;4.54;100.00;101276.66;5041157;28;20563;-73
2021/01/03 08:27:52;;;;;;;20.75;10.23;;;;;;;4.69;100.00;101279.00;5017155;28;20025;-72
2021/01/03 08:30:21;;;;;;;21.42;11.32;;;;;;;4.40;100.00;101275.88;5020696;28;20037;-73
2021/01/03 08:32:47;;;;;;;20.95;10.80;;;;;;;4.35;100.00;101275.97;5042772;28;20041;-73
2021/01/03 08:35:31;;;;;;;22.70;11.98;;;;;;;4.47;100.00;101276.28;5019983;28;20060;-73
2021/01/03 08:37:57;;;;;;;21.60;10.93;;;;;;;4.43;100.00;101280.63;5021642;28;20061;-73
2021/01/03 08:40:27;;;;;;;21.90;11.10;;;;;;;4.24;100.00;101293.28;5038280;28;20029;-73
2021/01/03 08:43:08;;;;;;;20.33;11.27;;;;;;;4.44;100.00;101282.97;5020054;28;20029;-72
2021/01/03 08:45:40;;;;;;;21.70;10.02;;;;;;;4.72;100.00;101291.75;5024629;28;20100;-72
2021/01/03 08:48:11;;;;;;;18.65;9.38;;;;;;;4.53;100.00;101289.19;5040906;28;20504;-73
2021/01/03 08:50:38;;;;;;;16.80;9.30;;;;;;;4.48;100.00;101291.16;5023345;28;20206;-72
2021/01/03 08:53:37;;;;;;;22.08;9.95;;;;;;;4.57;100.00;101287.50;5039012;28;20105;-72
2021/01/03 08:56:29;;;;;;;23.00;10.80;;;;;;;4.61;100.00;101289.59;5001582;28;20507;-72
2021/01/03 08:58:55;;;;;;;18.38;9.00;;;;;;;4.57;100.00;101292.03;4986433;28;20054;-72
2021/01/03 09:01:29;;;;;;;19.30;9.00;;;;;;;4.45;100.00;101284.56;4988823;28;20470;-72
2021/01/03 09:04:00;;;;;;;20.85;10.52;;;;;;;4.55;100.00;101296.88;4969414;28;20259;-72
2021/01/03 09:06:27;;;;;;;15.82;9.00;;;;;;;4.66;100.00;101298.28;4965500;28;20038;-72
2021/01/03 09:08:53;;;;;;;15.82;8.80;;;;;;;4.65;100.00;101296.69;4987921;28;20555;-72
2021/01/03 09:11:18;;;;;;;15.43;8.18;;;;;;;4.59;100.00;101298.66;4988795;28;20090;-72
2021/01/03 09:13:50;;;;;;;15.82;8.27;;;;;;;4.76;100.00;101303.41;4988665;28;20154;-74
2021/01/03 09:16:40;;;;;;;13.98;7.68;;;;;;;4.80;100.00;101299.00;4970683;28;20129;-72
2021/01/03 09:19:18;;;;;;;14.45;7.40;;;;;;;4.87;100.00;101301.28;4971981;28;20085;-72
2021/01/03 09:21:51;;;;;;;15.65;7.60;;;;;;;4.78;100.00;101308.44;4991298;28;20038;-73
2021/01/03 09:24:28;;;;;;;14.20;7.82;;;;;;;4.83;100.00;101300.31;4990696;28;20523;-73
2021/01/03 09:26:55;;;;;;;14.43;7.72;;;;;;;5.01;100.00;101310.03;4990711;28;20071;-73
2021/01/03 09:29:33;;;;;;;13.50;7.45;;;;;;;5.25;100.00;101299.88;4991675;28;20467;-72
2021/01/03 09:32:14;;;;;;;17.67;7.68;;;;;;;5.51;100.00;101303.53;4990622;28;20041;-73
2021/01/03 09:35:09;;;;;;;12.00;6.38;;;;;;;5.50;100.00;101310.75;4991744;28;20054;-72
2021/01/03 09:37:39;;;;;;;12.50;6.85;;;;;;;5.57;100.00;101299.63;5024076;28;20045;-73
2021/01/03 09:40:43;;;;;;;10.70;6.00;;;;;;;5.71;100.00;101303.00;5006752;28;20036;-73
2021/01/03 09:43:34;;;;;;;11.90;6.65;;;;;;;5.90;100.00;101295.63;4957941;28;20115;-73
2021/01/03 09:46:09;;;;;;;11.82;6.70;;;;;;;6.04;99.55;101308.88;5038339;28;20075;-73
2021/01/03 09:48:38;;;;;;;13.38;6.45;;;;;;;6.09;99.44;101304.19;5042906;28;20111;-73
2021/01/03 09:51:28;;;;;;;10.52;6.15;;;;;;;6.08;99.01;101305.28;5046697;28;20065;-73
2021/01/03 09:54:15;;;;;;;11.02;5.78;;;;;;;5.97;98.45;101314.66;5024540;28;20043;-72
2021/01/03 09:56:42;;;;;;;10.88;5.88;;;;;;;6.04;98.21;101300.88;5045095;28;20056;-73
2021/01/03 09:59:14;;;;;;;10.25;5.75;;;;;;;6.29;98.23;101294.84;5045278;28;20036;-72
2021/01/03 10:01:40;;;;;;;8.60;5.45;;;;;;;6.36;97.46;101292.47;5020617;28;20041;-73
2021/01/03 10:04:15;;;;;;;10.77;6.18;;;;;;;6.40;96.21;101298.78;5008112;28;20032;-72
2021/01/03 10:06:43;;;;;;;9.68;5.50;;;;;;;6.54;95.54;101294.13;5016335;28;20037;-73
2021/01/03 10:09:18;;;;;;;7.85;5.15;;;;;;;6.45;95.06;101298.63;5044738;28;20168;-72
2021/01/03 10:11:45;;;;;;;9.18;5.35;;;;;;;6.68;94.57;101292.06;5024427;28;20044;-73
2021/01/03 10:14:29;;;;;;;9.75;5.65;;;;;;;6.80;94.00;101299.50;5041007;28;20498;-73
2021/01/03 10:16:54;;;;;;;9.40;5.22;;;;;;;6.28;93.78;101293.25;5040794;28;20040;-70
2021/01/03 10:19:22;;;;;;;8.85;5.05;;;;;;;6.21;95.59;101284.88;5015452;28;20048;-73
2021/01/03 10:21:48;;;;;;;9.80;5.78;;;;;;;6.36;95.03;101297.84;5039501;28;20184;-71
2021/01/03 10:24:23;;;;;;;11.90;6.13;;;;;;;6.21;95.05;101303.59;5045400;28;20687;-72
2021/01/03 10:27:09;;;;;;;7.20;4.63;;;;;;;6.16;95.36;101303.72;5040946;28;20030;-71
2021/01/03 10:29:35;;;;;;;6.43;4.57;;;;;;;6.05;95.83;101299.75;5028349;28;20051;-72
2021/01/03 10:32:01;;;;;;;7.13;4.43;;;;;;;5.95;96.30;101302.69;5022079;28;20038;-72
2021/01/03 10:34:27;;;;;;;6.82;4.30;;;;;;;5.83;96.39;101313.13;5046655;28;20087;-71
2021/01/03 10:36:54;;;;;;;6.47;4.22;;;;;;;5.59;97.06;101294.78;5043658;28;20044;-71
2021/01/03 10:39:20;;;;;;;7.95;4.05;;;;;;;5.53;98.17;101302.09;5042928;28;20033;-72
2021/01/03 10:41:49;;;;;;;5.55;3.80;;;;;;;5.57;98.59;101298.84;5042840;28;20086;-72
2021/01/03 10:44:15;;;;;;;5.95;3.53;;;;;;;5.40;98.53;101302.19;5045921;28;20064;-72
2021/01/03 10:46:41;;;;;;;5.22;3.60;;;;;;;5.56;99.02;101299.91;5030489;28;20028;-72
2021/01/03 10:49:08;;;;;;;6.38;3.90;;;;;;;5.47;99.18;101300.69;5041898;28;20436;-78
2021/01/03 10:51:38;;;;;;;5.53;3.58;;;;;;;5.29;99.23;101293.63;5027464;28;20033;-78
2021/01/03 10:54:07;;;;;;;7.05;3.67;;;;;;;5.43;99.08;101285.56;5025118;28;20059;-78
2021/01/03 10:56:32;;;;;;;6.32;3.50;;;;;;;5.51;99.51;101295.50;5028604;28;20025;-76
2021/01/03 10:58:58;;;;;;;6.32;3.85;;;;;;;5.63;98.36;101293.06;5026803;28;20024;-79
2021/01/03 11:01:23;;;;;;;6.35;3.70;;;;;;;5.37;98.72;101289.44;5009243;28;20037;-78
2021/01/03 11:03:50;;;;;;;5.57;3.58;;;;;;;5.29;99.85;101287.50;5027112;28;20048;-79
2021/01/03 11:06:16;;;;;;;5.75;3.70;;;;;;;5.41;99.33;101291.22;5017484;28;20472;-78
2021/01/03 11:08:42;;;;;;;4.63;3.58;;;;;;;5.53;98.89;101288.75;5015017;28;20068;-79
2021/01/03 11:11:07;;;;;;;5.80;3.58;;;;;;;5.48;99.10;101282.75;5017854;28;20038;-79
2021/01/03 11:13:34;;;;;;;6.28;3.88;;;;;;;5.45;99.25;101278.81;5030819;28;20422;-78
2021/01/03 11:16:00;;;;;;;4.97;3.10;;;;;;;5.56;98.68;101283.91;5030815;28;20033;-79
2021/01/03 11:18:25;;;;;;;4.53;3.05;;;;;;;5.42;98.97;101278.63;5014407;28;20060;-78
2021/01/03 11:20:51;;;;;;;3.60;3.00;;;;;;;5.18;98.83;101276.28;5032221;28;20060;-80
2021/01/03 11:23:18;;;;;;;4.03;2.90;;;;;;;5.22;98.65;101269.25;5035807;28;20041;-76
2021/01/03 11:25:45;;;;;;;5.60;3.38;;;;;;;5.40;99.14;101276.25;5031573;28;20025;-78
2021/01/03 11:28:12;;;;;;;4.43;3.00;;;;;;;5.47;97.67;101270.50;5032869;28;20123;-78
2021/01/03 11:30:37;;;;;;;4.68;2.95;;;;;;;5.44;97.46;101271.88;5025621;28;20041;-77
2021/01/03 11:33:03;;;;;;;5.38;2.65;;;;;;;5.18;98.32;101267.47;5050341;28;20144;-78